Terminal Aerodrome Forecast
Issued by NWS

Home | Current Version | Previous Version | Text Only | Print | Product List | Glossary On
Versions: 1 2 3 4 5 6 7 8 9 10 11 12 13 14 15 16 17 18 19 20 21 22 23 24 25 26 27 28 29 30
380
FTUS43 KGRB 240541 AAA
TAFATW
TAF AMD
KATW 240541Z 2406/2506 15008KT P6SM SCT025 OVC060 WS018/23040KT
      TEMPO 2407/2410 4SM -RA BR BKN025
     FM241000 VRB03KT 3SM -RA BR OVC012
     FM241300 VRB03KT 2SM -RA BR OVC007
     FM241600 03008KT 1 1/2SM RA BR OVC004
     FM250200 04011G19KT 2SM RA BR OVC004=

USA.gov is the U.S. government's official web portal to all federal, state and local government web resources and services.